createdAt,value
2023-03-11T00:00:27.338Z,98465.78
2023-03-11T00:02:56.510Z,98466.94
2023-03-11T00:05:28.748Z,98487.53
2023-03-11T00:07:56.412Z,98486.06
2023-03-11T00:10:27.945Z,98480.69
2023-03-11T00:12:56.347Z,98465.34
2023-03-11T00:15:23.044Z,98468.56
2023-03-11T00:17:50.474Z,98482.44
2023-03-11T00:20:23.899Z,98481.25
2023-03-11T00:22:53.408Z,98487.09
2023-03-11T00:25:21.524Z,98490.75
2023-03-11T00:27:48.517Z,98497.50
2023-03-11T00:30:21.545Z,98504.34
2023-03-11T00:32:53.254Z,98483.13
2023-03-11T00:35:24.288Z,98489.06
2023-03-11T00:37:55.086Z,98477.59
2023-03-11T00:40:23.676Z,98487.72
2023-03-11T00:42:51.000Z,98462.44
2023-03-11T00:45:18.049Z,98473.75
2023-03-11T00:47:45.383Z,98463.97
2023-03-11T00:50:18.695Z,98454.41
2023-03-11T00:52:47.494Z,98428.28
2023-03-11T00:55:16.993Z,98481.25
2023-03-11T00:57:44.536Z,98493.69
2023-03-11T01:00:17.026Z,98490.84
2023-03-11T01:02:43.977Z,98493.22
2023-03-11T01:05:10.993Z,98497.78
2023-03-11T01:07:38.137Z,98508.41
2023-03-11T01:10:06.789Z,98512.13
2023-03-11T01:12:33.888Z,98519.66
2023-03-11T01:15:02.472Z,98517.28
2023-03-11T01:17:29.300Z,98517.28
2023-03-11T01:19:56.300Z,98512.25
2023-03-11T01:22:23.267Z,98497.75
2023-03-11T01:24:50.095Z,98511.66
2023-03-11T01:27:16.905Z,98510.91
2023-03-11T01:29:43.650Z,98530.28
2023-03-11T01:32:11.504Z,98531.75
2023-03-11T01:34:38.450Z,98510.47
2023-03-11T01:37:05.235Z,98535.34
2023-03-11T01:39:31.977Z,98537.19
2023-03-11T01:41:58.715Z,98515.41
2023-03-11T01:44:25.664Z,98501.56
2023-03-11T01:46:52.722Z,98522.84
2023-03-11T01:49:23.445Z,98511.63
2023-03-11T01:51:54.591Z,98514.88
2023-03-11T01:54:25.988Z,98513.28
2023-03-11T01:56:54.592Z,98495.88
2023-03-11T01:59:26.624Z,98515.94
2023-03-11T02:02:06.985Z,98508.19
2023-03-11T02:04:37.391Z,98512.63
2023-03-11T02:07:04.612Z,98516.66
2023-03-11T02:09:31.369Z,98525.81
2023-03-11T02:11:58.465Z,98533.19
2023-03-11T02:14:27.519Z,98542.34
2023-03-11T02:16:55.346Z,98549.63
2023-03-11T02:19:29.139Z,98545.78
2023-03-11T02:21:57.345Z,98539.97
2023-03-11T02:24:46.867Z,98555.91
2023-03-11T02:27:16.502Z,98532.84
2023-03-11T02:29:49.766Z,98543.13
2023-03-11T02:32:18.767Z,98535.19
2023-03-11T02:34:46.342Z,98525.59
2023-03-11T02:37:16.711Z,98542.41
2023-03-11T02:39:52.033Z,98520.75
2023-03-11T02:42:32.144Z,98531.53
2023-03-11T02:45:05.931Z,98521.34
2023-03-11T02:47:33.835Z,98502.97
2023-03-11T02:50:00.720Z,98489.28
2023-03-11T02:52:33.840Z,98498.47
2023-03-11T02:55:00.984Z,98502.16
2023-03-11T02:57:27.825Z,98511.91
2023-03-11T02:59:54.655Z,98511.09
2023-03-11T03:02:21.399Z,98528.63
2023-03-11T03:04:48.560Z,98520.69
2023-03-11T03:07:16.085Z,98510.09
2023-03-11T03:09:43.147Z,98494.22
2023-03-11T03:12:09.926Z,98486.28
2023-03-11T03:14:36.811Z,98502.56
2023-03-11T03:17:03.979Z,98505.41
2023-03-11T03:19:30.739Z,98512.09
2023-03-11T03:21:57.521Z,98521.69
2023-03-11T03:24:24.804Z,98533.09
2023-03-11T03:26:52.250Z,98560.41
2023-03-11T03:29:19.422Z,98548.72
2023-03-11T03:31:48.408Z,98575.13
2023-03-11T03:34:15.468Z,98579.16
2023-03-11T03:36:42.538Z,98556.66
2023-03-11T03:39:09.357Z,98583.69
2023-03-11T03:41:37.473Z,98580.50
2023-03-11T03:44:05.314Z,98567.13
2023-03-11T03:46:34.356Z,98581.00
2023-03-11T03:49:02.329Z,98562.59
2023-03-11T03:51:30.614Z,98584.66
2023-03-11T03:54:08.977Z,98600.16
2023-03-11T03:56:36.106Z,98601.38
2023-03-11T03:59:03.670Z,98584.56
2023-03-11T04:01:37.100Z,98602.97
2023-03-11T04:04:04.362Z,98608.47
2023-03-11T04:06:31.177Z,98627.84
2023-03-11T04:09:02.459Z,98637.81
2023-03-11T04:11:33.009Z,98646.38
2023-03-11T04:14:02.566Z,98648.78
2023-03-11T04:16:30.564Z,98653.00
2023-03-11T04:19:02.130Z,98656.41
2023-03-11T04:21:28.899Z,98650.88
2023-03-11T04:23:56.462Z,98649.03
2023-03-11T04:26:30.005Z,98634.25
2023-03-11T04:28:56.867Z,98646.69
2023-03-11T04:31:25.347Z,98644.19
2023-03-11T04:33:52.821Z,98603.03
2023-03-11T04:36:19.662Z,98615.13
2023-03-11T04:38:46.823Z,98631.72
2023-03-11T04:41:14.377Z,98636.34
2023-03-11T04:43:42.314Z,98634.66
2023-03-11T04:46:09.107Z,98635.09
2023-03-11T04:48:36.304Z,98623.91
2023-03-11T04:51:03.404Z,98600.59
2023-03-11T04:53:30.267Z,98630.09
2023-03-11T04:55:57.421Z,98629.41
2023-03-11T04:58:24.506Z,98629.97
2023-03-11T05:00:52.863Z,98620.97
2023-03-11T05:03:20.519Z,98621.50
2023-03-11T05:05:47.387Z,98625.34
2023-03-11T05:08:14.272Z,98621.56
2023-03-11T05:10:42.787Z,98616.00
2023-03-11T05:13:10.245Z,98608.72
2023-03-11T05:15:39.180Z,98636.69
2023-03-11T05:18:06.948Z,98653.56
2023-03-11T05:20:36.158Z,98660.66
2023-03-11T05:23:03.668Z,98650.38
2023-03-11T05:25:32.462Z,98691.75
2023-03-11T05:27:59.397Z,98698.94
2023-03-11T05:30:26.336Z,98708.88
2023-03-11T05:32:54.581Z,98693.91
2023-03-11T05:35:21.942Z,98714.09
2023-03-11T05:37:49.879Z,98694.00
2023-03-11T05:40:18.576Z,98705.69
2023-03-11T05:42:45.409Z,98721.63
2023-03-11T05:45:14.608Z,98695.13
2023-03-11T05:47:43.540Z,98706.69
2023-03-11T05:50:13.094Z,98722.81
2023-03-11T05:52:41.293Z,98724.94
2023-03-11T05:55:09.936Z,98725.38
2023-03-11T05:57:39.047Z,98720.47
2023-03-11T06:00:12.476Z,98729.00
2023-03-11T06:02:46.705Z,98729.66
2023-03-11T06:05:17.161Z,98735.94
2023-03-11T06:07:45.726Z,98742.16
2023-03-11T06:10:12.909Z,98737.94
2023-03-11T06:12:40.490Z,98748.53
2023-03-11T06:15:26.010Z,98744.50
2023-03-11T06:17:53.673Z,98741.13
2023-03-11T06:20:20.651Z,98740.69
2023-03-11T06:22:51.172Z,98732.44
2023-03-11T06:25:20.020Z,98744.03
2023-03-11T06:27:53.472Z,98751.34
2023-03-11T06:30:21.614Z,98753.16
2023-03-11T06:32:58.854Z,98765.63
2023-03-11T06:35:27.215Z,98756.53
2023-03-11T06:37:55.286Z,98773.78
2023-03-11T06:40:22.072Z,98776.41
2023-03-11T06:42:48.895Z,98782.25
2023-03-11T06:45:18.968Z,98778.25
2023-03-11T06:47:47.400Z,98790.56
2023-03-11T06:50:14.572Z,98794.84
2023-03-11T06:52:41.360Z,98778.31
2023-03-11T06:55:09.031Z,98804.78
2023-03-11T06:57:36.627Z,98813.81
2023-03-11T07:00:07.883Z,98820.38
2023-03-11T07:02:35.933Z,98820.66
2023-03-11T07:05:03.762Z,98845.84
2023-03-11T07:07:31.336Z,98854.56
2023-03-11T07:09:58.391Z,98849.28
2023-03-11T07:12:25.585Z,98851.13
2023-03-11T07:14:57.265Z,98864.53
2023-03-11T07:17:25.063Z,98836.94
2023-03-11T07:19:53.470Z,98852.44
2023-03-11T07:22:20.592Z,98866.47
2023-03-11T07:24:48.711Z,98868.91
2023-03-11T07:27:15.981Z,98880.97
2023-03-11T07:29:42.753Z,98873.13
2023-03-11T07:32:10.035Z,98872.78
2023-03-11T07:34:36.827Z,98885.56
2023-03-11T07:37:04.126Z,98876.72
2023-03-11T07:39:30.877Z,98876.28
2023-03-11T07:41:57.610Z,98889.63
2023-03-11T07:44:33.775Z,98895.00
2023-03-11T07:47:06.116Z,98885.78
2023-03-11T07:49:33.808Z,98877.88
2023-03-11T07:52:00.645Z,98879.78
2023-03-11T07:54:27.550Z,98869.75
2023-03-11T07:56:54.283Z,98863.72
2023-03-11T07:59:21.065Z,98876.84
2023-03-11T08:01:47.860Z,98874.84
2023-03-11T08:04:16.984Z,98860.16
2023-03-11T08:06:46.478Z,98867.47
2023-03-11T08:09:13.989Z,98880.97
2023-03-11T08:11:40.930Z,98887.44
2023-03-11T08:14:07.711Z,98890.53
2023-03-11T08:16:34.882Z,98900.63
2023-03-11T08:19:02.140Z,98889.69
2023-03-11T08:21:32.044Z,98905.63
2023-03-11T08:24:01.410Z,98880.13
2023-03-11T08:26:29.174Z,98897.28
2023-03-11T08:28:57.282Z,98888.91
2023-03-11T08:31:27.344Z,98896.56
2023-03-11T08:33:57.937Z,98894.84
2023-03-11T08:36:25.004Z,98874.03
2023-03-11T08:38:51.972Z,98880.50
2023-03-11T08:41:19.575Z,98911.63
2023-03-11T08:43:47.010Z,98915.81
2023-03-11T08:46:20.190Z,98910.25
2023-03-11T08:48:47.041Z,98910.25
2023-03-11T08:51:13.915Z,98915.25
2023-03-11T08:53:41.066Z,98923.44
2023-03-11T08:56:08.281Z,98902.78
2023-03-11T08:58:35.409Z,98912.09
2023-03-11T09:01:02.467Z,98937.19
2023-03-11T09:03:32.612Z,98924.13
2023-03-11T09:06:01.913Z,98925.41
2023-03-11T09:08:29.389Z,98934.06
2023-03-11T09:10:56.344Z,98932.09
2023-03-11T09:13:23.590Z,98932.97
2023-03-11T09:15:51.547Z,98936.28
2023-03-11T09:18:18.817Z,98919.75
2023-03-11T09:20:46.067Z,98939.28
2023-03-11T09:23:15.770Z,98915.00
2023-03-11T09:25:42.917Z,98918.28
2023-03-11T09:28:09.744Z,98919.75
2023-03-11T09:30:36.493Z,98947.06
2023-03-11T09:33:03.281Z,98925.84
2023-03-11T09:35:30.361Z,98914.00
2023-03-11T09:37:57.355Z,98938.88
2023-03-11T09:40:28.358Z,98925.63
2023-03-11T09:43:14.959Z,98934.41
2023-03-11T09:45:51.753Z,98933.41
2023-03-11T09:48:29.704Z,98939.28
2023-03-11T09:51:08.990Z,98948.84
2023-03-11T09:53:42.304Z,98947.44
2023-03-11T09:56:13.516Z,98959.53
2023-03-11T09:58:47.559Z,98955.50
2023-03-11T10:01:33.261Z,98960.88
2023-03-11T10:04:13.357Z,98954.28
2023-03-11T10:06:44.434Z,98949.31
2023-03-11T10:09:36.544Z,98945.47
2023-03-11T10:12:42.122Z,98965.78
2023-03-11T10:15:48.387Z,98961.50
2023-03-11T10:18:45.428Z,98988.56
2023-03-11T10:21:31.212Z,98994.16
2023-03-11T10:24:33.660Z,99001.78
2023-03-11T10:27:05.077Z,99012.47
2023-03-11T10:29:43.882Z,99014.63
2023-03-11T10:32:20.499Z,99011.03
2023-03-11T10:34:54.929Z,98992.72
2023-03-11T10:37:38.848Z,99009.31
2023-03-11T10:40:34.816Z,98989.41
2023-03-11T10:43:12.013Z,98985.63
2023-03-11T10:45:43.451Z,98997.69
2023-03-11T10:48:16.445Z,99007.81
2023-03-11T10:51:07.597Z,98989.28
2023-03-11T10:53:46.671Z,98984.31
2023-03-11T10:56:35.363Z,99012.03
2023-03-11T10:59:04.326Z,99026.66
2023-03-11T11:01:31.886Z,99031.16
2023-03-11T11:04:01.148Z,99037.81
2023-03-11T11:06:33.842Z,99067.38
2023-03-11T11:09:21.987Z,99060.19
2023-03-11T11:12:06.353Z,99057.75
2023-03-11T11:15:02.463Z,99073.38
2023-03-11T11:17:33.051Z,99064.84
2023-03-11T11:20:12.989Z,99078.81
2023-03-11T11:22:47.786Z,99063.09
2023-03-11T11:25:30.273Z,99085.56
2023-03-11T11:28:05.260Z,99079.34
2023-03-11T11:30:32.014Z,99085.41
2023-03-11T11:33:21.294Z,99068.69
2023-03-11T11:35:51.434Z,99064.50
2023-03-11T11:38:22.492Z,99078.38
2023-03-11T11:40:49.268Z,99088.47
2023-03-11T11:43:22.846Z,99057.53
2023-03-11T11:45:56.214Z,99067.59
2023-03-11T11:48:30.269Z,99077.31
2023-03-11T11:51:03.350Z,99055.97
2023-03-11T11:53:49.613Z,99059.81
2023-03-11T11:56:16.508Z,99068.47
2023-03-11T11:58:43.752Z,99074.53
2023-03-11T12:01:19.829Z,99079.72
2023-03-11T12:04:24.195Z,99072.59
2023-03-11T12:06:57.232Z,99073.88
2023-03-11T12:10:12.933Z,99082.34
2023-03-11T12:13:37.679Z,99081.38
2023-03-11T12:16:04.699Z,99056.22
2023-03-11T12:18:53.790Z,99084.22
2023-03-11T12:21:42.443Z,99084.88
2023-03-11T12:24:11.977Z,99090.09
2023-03-11T12:26:42.695Z,99077.81
2023-03-11T12:29:26.446Z,99083.50
2023-03-11T12:31:55.376Z,99068.06
2023-03-11T12:34:24.751Z,99084.78
2023-03-11T12:36:52.977Z,99065.69
2023-03-11T12:39:25.260Z,99075.31
2023-03-11T12:42:16.937Z,99100.06
2023-03-11T12:44:44.754Z,99100.16
2023-03-11T12:47:11.495Z,99102.06
2023-03-11T12:49:46.232Z,99114.31
2023-03-11T12:52:15.552Z,99112.78
2023-03-11T12:54:43.547Z,99122.94
2023-03-11T12:57:31.131Z,99126.38
2023-03-11T13:00:22.918Z,99145.22
2023-03-11T13:03:27.396Z,99133.59
2023-03-11T13:06:12.779Z,99172.97
2023-03-11T13:08:52.207Z,99160.00
2023-03-11T13:11:37.160Z,99166.69
2023-03-11T13:14:18.780Z,99174.81
2023-03-11T13:16:46.840Z,99151.94
2023-03-11T13:19:34.624Z,99190.81
2023-03-11T13:22:03.976Z,99201.09
2023-03-11T13:24:30.609Z,99198.00
2023-03-11T13:27:02.240Z,99197.47
2023-03-11T13:29:54.874Z,99192.19
2023-03-11T13:32:39.784Z,99207.16
2023-03-11T13:35:28.149Z,99211.53
2023-03-11T13:38:21.022Z,99212.59
2023-03-11T13:40:47.900Z,99212.69
2023-03-11T13:43:20.908Z,99203.91
2023-03-11T13:45:53.835Z,99221.09
2023-03-11T13:48:37.624Z,99197.69
2023-03-11T13:51:13.377Z,99228.06
2023-03-11T13:53:53.432Z,99243.25
2023-03-11T13:56:26.977Z,99254.38
2023-03-11T13:58:54.341Z,99270.16
2023-03-11T14:01:21.521Z,99259.63
2023-03-11T14:03:48.615Z,99247.25
2023-03-11T14:06:19.739Z,99252.81
2023-03-11T14:08:57.663Z,99283.00
2023-03-11T14:11:29.484Z,99272.41
2023-03-11T14:13:56.581Z,99278.75
2023-03-11T14:16:35.283Z,99292.66
2023-03-11T14:19:08.859Z,99306.84
2023-03-11T14:21:35.963Z,99299.09
2023-03-11T14:24:03.979Z,99290.75
2023-03-11T14:26:34.991Z,99300.19
2023-03-11T14:29:09.647Z,99300.41
2023-03-11T14:31:44.108Z,99292.22
2023-03-11T14:34:10.913Z,99302.53
2023-03-11T14:36:50.927Z,99299.25
2023-03-11T14:39:26.626Z,99316.41
2023-03-11T14:42:18.904Z,99309.19
2023-03-11T14:45:10.768Z,99313.19
2023-03-11T14:47:54.186Z,99291.53
2023-03-11T14:50:27.560Z,99326.22
2023-03-11T14:53:04.694Z,99330.69
2023-03-11T14:55:58.630Z,99337.75
2023-03-11T14:58:40.455Z,99340.59
2023-03-11T15:01:12.809Z,99335.66
2023-03-11T15:04:09.581Z,99359.66
2023-03-11T15:06:41.051Z,99357.00
2023-03-11T15:09:12.209Z,99343.16
2023-03-11T15:11:52.196Z,99367.94
2023-03-11T15:14:24.284Z,99379.00
2023-03-11T15:16:52.462Z,99374.03
2023-03-11T15:19:28.366Z,99360.84
2023-03-11T15:21:59.673Z,99351.56
2023-03-11T15:24:32.053Z,99383.63
2023-03-11T15:27:03.271Z,99388.44
2023-03-11T15:29:31.411Z,99382.66
2023-03-11T15:31:59.306Z,99382.31
2023-03-11T15:34:27.589Z,99380.66
2023-03-11T15:37:19.573Z,99387.78
2023-03-11T15:39:51.163Z,99371.09
2023-03-11T15:42:21.729Z,99399.50
2023-03-11T15:44:53.673Z,99405.63
2023-03-11T15:47:22.720Z,99397.84
2023-03-11T15:49:50.129Z,99407.94
2023-03-11T15:52:19.412Z,99424.75
2023-03-11T15:54:55.204Z,99423.56
2023-03-11T15:57:32.305Z,99437.78
2023-03-11T16:00:00.337Z,99448.38
2023-03-11T16:02:30.296Z,99438.41
2023-03-11T16:04:57.806Z,99446.22
2023-03-11T16:07:38.652Z,99452.47
2023-03-11T16:10:07.440Z,99444.34
2023-03-11T16:12:34.412Z,99424.47
2023-03-11T16:15:01.176Z,99466.13
2023-03-11T16:17:39.572Z,99487.44
2023-03-11T16:20:14.002Z,99483.31
2023-03-11T16:22:40.912Z,99482.13
2023-03-11T16:25:17.894Z,99496.31
2023-03-11T16:27:44.811Z,99494.13
2023-03-11T16:30:15.221Z,99501.56
2023-03-11T16:32:43.246Z,99492.28
2023-03-11T16:35:11.024Z,99514.22
2023-03-11T16:37:38.382Z,99509.75
2023-03-11T16:40:07.259Z,99506.59
2023-03-11T16:42:34.178Z,99515.47
2023-03-11T16:45:03.509Z,99539.22
2023-03-11T16:47:30.671Z,99531.94
2023-03-11T16:49:57.309Z,99546.13
2023-03-11T16:52:24.236Z,99547.25
2023-03-11T16:54:51.036Z,99558.78
2023-03-11T16:57:17.784Z,99559.09
2023-03-11T16:59:44.537Z,99561.84
2023-03-11T17:02:12.257Z,99572.09
2023-03-11T17:04:39.171Z,99581.66
2023-03-11T17:07:06.648Z,99593.34
2023-03-11T17:09:34.613Z,99595.91
2023-03-11T17:12:02.553Z,99590.69
2023-03-11T17:14:29.820Z,99602.44
2023-03-11T17:16:56.567Z,99609.53
2023-03-11T17:19:24.096Z,99624.94
2023-03-11T17:21:51.365Z,99626.34
2023-03-11T17:24:18.165Z,99624.72
2023-03-11T17:26:45.038Z,99600.75
2023-03-11T17:29:11.841Z,99608.44
2023-03-11T17:31:38.688Z,99619.50
2023-03-11T17:34:05.498Z,99618.16
2023-03-11T17:36:32.206Z,99619.44
2023-03-11T17:38:58.971Z,99642.13
2023-03-11T17:41:25.707Z,99655.44
2023-03-11T17:43:52.585Z,99663.50
2023-03-11T17:46:20.532Z,99660.03
2023-03-11T17:48:48.853Z,99677.94
2023-03-11T17:51:18.934Z,99692.13
2023-03-11T17:53:46.558Z,99698.69
2023-03-11T17:56:15.527Z,99687.47
2023-03-11T17:58:42.627Z,99710.75
2023-03-11T18:01:13.986Z,99698.56
2023-03-11T18:03:40.926Z,99715.91
2023-03-11T18:06:08.510Z,99738.38
2023-03-11T18:08:35.988Z,99736.72
2023-03-11T18:11:07.109Z,99737.22
2023-03-11T18:13:35.576Z,99744.22
2023-03-11T18:16:07.613Z,99755.63
2023-03-11T18:18:36.122Z,99749.28
2023-03-11T18:21:18.237Z,99754.66
2023-03-11T18:23:45.917Z,99742.06
2023-03-11T18:26:15.280Z,99737.34
2023-03-11T18:28:42.490Z,99758.19
2023-03-11T18:31:18.026Z,99765.09
2023-03-11T18:33:50.606Z,99775.75
2023-03-11T18:36:19.365Z,99762.88
2023-03-11T18:38:46.587Z,99768.28
2023-03-11T18:41:13.845Z,99785.22
2023-03-11T18:43:41.048Z,99790.47
2023-03-11T18:46:10.233Z,99785.91
2023-03-11T18:48:37.974Z,99789.38
2023-03-11T18:51:05.610Z,99787.03
2023-03-11T18:53:32.481Z,99793.56
2023-03-11T18:56:11.713Z,99782.03
2023-03-11T18:58:38.697Z,99792.03
2023-03-11T19:01:06.557Z,99796.59
2023-03-11T19:03:34.060Z,99802.44
2023-03-11T19:06:01.833Z,99814.09
2023-03-11T19:08:28.953Z,99807.44
2023-03-11T19:10:56.173Z,99816.03
2023-03-11T19:13:23.441Z,99808.00
2023-03-11T19:15:50.309Z,99818.09
2023-03-11T19:18:17.100Z,99823.81
2023-03-11T19:20:43.945Z,99838.75
2023-03-11T19:23:11.445Z,99844.03
2023-03-11T19:25:38.367Z,99837.38
2023-03-11T19:28:05.223Z,99848.91
2023-03-11T19:30:32.785Z,99851.56
2023-03-11T19:32:59.552Z,99847.53
2023-03-11T19:35:26.363Z,99840.59
2023-03-11T19:37:57.120Z,99841.56
2023-03-11T19:40:24.443Z,99863.50
2023-03-11T19:42:51.733Z,99837.41
2023-03-11T19:45:18.625Z,99874.28
2023-03-11T19:47:50.033Z,99883.03
2023-03-11T19:50:17.997Z,99884.56
2023-03-11T19:52:45.472Z,99886.50
2023-03-11T19:55:12.504Z,99869.31
2023-03-11T19:57:39.305Z,99871.53
2023-03-11T20:00:07.237Z,99884.56
2023-03-11T20:02:33.933Z,99894.53
2023-03-11T20:05:00.819Z,99894.81
2023-03-11T20:07:27.809Z,99885.97
2023-03-11T20:09:54.615Z,99901.63
2023-03-11T20:12:21.318Z,99895.38
2023-03-11T20:14:48.420Z,99882.63
2023-03-11T20:17:15.177Z,99900.53
2023-03-11T20:19:42.200Z,99906.91
2023-03-11T20:22:08.966Z,99918.13
2023-03-11T20:24:35.696Z,99896.66
2023-03-11T20:27:02.506Z,99919.09
2023-03-11T20:29:29.301Z,99926.16
2023-03-11T20:31:56.097Z,99920.88
2023-03-11T20:34:23.030Z,99916.88
2023-03-11T20:36:50.964Z,99926.44
2023-03-11T20:39:17.925Z,99930.44
2023-03-11T20:41:44.758Z,99919.34
2023-03-11T20:44:14.075Z,99934.19
2023-03-11T20:46:41.408Z,99930.44
2023-03-11T20:49:08.542Z,99930.56
2023-03-11T20:51:35.281Z,99928.91
2023-03-11T20:54:02.162Z,99935.53
2023-03-11T20:56:29.148Z,99921.56
2023-03-11T20:58:56.529Z,99921.66
2023-03-11T21:01:29.710Z,99932.34
2023-03-11T21:03:59.200Z,99927.34
2023-03-11T21:06:30.021Z,99917.91
2023-03-11T21:08:58.833Z,99944.38
2023-03-11T21:11:26.569Z,99953.94
2023-03-11T21:13:54.839Z,99963.53
2023-03-11T21:16:22.658Z,99973.19
2023-03-11T21:18:49.988Z,99943.66
2023-03-11T21:21:17.624Z,99979.69
2023-03-11T21:23:45.431Z,99983.44
2023-03-11T21:26:14.097Z,99996.47
2023-03-11T21:28:42.311Z,99989.53
2023-03-11T21:31:11.978Z,99990.38
2023-03-11T21:33:39.767Z,99954.03
2023-03-11T21:36:08.338Z,99988.44
2023-03-11T21:38:35.526Z,99970.22
2023-03-11T21:41:26.490Z,99998.41
2023-03-11T21:43:55.514Z,99979.41
2023-03-11T21:46:25.677Z,99993.81
2023-03-11T21:48:52.863Z,99975.88
2023-03-11T21:51:20.778Z,99989.47
2023-03-11T21:53:47.815Z,99992.81
2023-03-11T21:56:14.959Z,100005.03
2023-03-11T21:58:42.243Z,100014.72
2023-03-11T22:01:11.183Z,100015.56
2023-03-11T22:03:38.364Z,100018.63
2023-03-11T22:06:08.114Z,100016.09
2023-03-11T22:08:35.352Z,100025.50
2023-03-11T22:11:03.106Z,100030.91
2023-03-11T22:13:30.198Z,100032.72
2023-03-11T22:15:57.117Z,100033.34
2023-03-11T22:18:23.964Z,100041.00
2023-03-11T22:20:50.840Z,100026.72
2023-03-11T22:23:17.646Z,100028.34
2023-03-11T22:25:44.412Z,100044.28
2023-03-11T22:28:13.010Z,100038.06
2023-03-11T22:30:39.847Z,100040.44
2023-03-11T22:33:07.309Z,100035.44
2023-03-11T22:35:34.393Z,100035.56
2023-03-11T22:38:01.143Z,100037.59
2023-03-11T22:40:28.099Z,100047.31
2023-03-11T22:42:55.101Z,100029.47
2023-03-11T22:45:23.030Z,100050.91
2023-03-11T22:47:50.343Z,100057.78
2023-03-11T22:50:18.334Z,100061.34
2023-03-11T22:52:45.630Z,100060.78
2023-03-11T22:55:12.403Z,100063.53
2023-03-11T22:57:39.284Z,100063.78
2023-03-11T23:00:17.121Z,100071.22
2023-03-11T23:02:48.636Z,100073.09
2023-03-11T23:05:16.224Z,100085.44
2023-03-11T23:07:43.193Z,100086.97
2023-03-11T23:10:12.578Z,100079.84
2023-03-11T23:12:40.209Z,100089.72
2023-03-11T23:15:10.460Z,100092.03
2023-03-11T23:17:37.231Z,100088.94
2023-03-11T23:20:05.920Z,100095.88
2023-03-11T23:22:37.907Z,100088.22
2023-03-11T23:25:07.432Z,100089.22
2023-03-11T23:27:34.154Z,100095.28
2023-03-11T23:30:01.070Z,100104.72
2023-03-11T23:32:28.051Z,100101.75
2023-03-11T23:34:54.855Z,100107.53
2023-03-11T23:37:21.609Z,100111.81
2023-03-11T23:39:48.382Z,100124.97
2023-03-11T23:42:25.594Z,100118.63
2023-03-11T23:44:53.963Z,100124.59
2023-03-11T23:47:21.186Z,100121.25
2023-03-11T23:49:47.880Z,100107.31
2023-03-11T23:52:14.612Z,100129.53
2023-03-11T23:54:41.365Z,100133.50
2023-03-11T23:57:08.234Z,100133.50
2023-03-11T23:59:35.091Z,100136.81
